WetterOnline ( http://www.wetteronline.de )

Wetter aktuell Freiburg

Aktuelles Wetter: Freiburg/Flugplatz (236m)

6-stündlich | Neueste Meldungen
Ortszeit Temperatur Wetter
Sa, 15.12. 1:00 -0.5° C bedeckt
Fr, 14.12. 19:00 0.4° C bedeckt
Fr, 14.12. 13:00 1.6° C wolkenlos
Fr, 14.12. 7:00 -3.3° C wolkenlos
Fr, 14.12. 1:00 0.3° C wolkenlos
Do, 13.12. 19:00 1.3° C bedeckt
Do, 13.12. 13:00 1.5° C bedeckt
Do, 13.12. 7:00 -0.6° C bewölkt
Ortszeit Temperatur Wetter
Sa, 15.12. 3:30 -0.4° C bedeckt
Sa, 15.12. 3:20 -0.4° C bedeckt
Sa, 15.12. 3:10 -0.4° C bedeckt
Sa, 15.12. 3:00 -0.4° C bedeckt
Sa, 15.12. 2:50 -0.4° C bedeckt
Sa, 15.12. 2:40 -0.5° C bedeckt
Sa, 15.12. 2:30 -0.3° C bedeckt
Sa, 15.12. 2:00 -0.5° C bedeckt
Sa, 15.12. 1:30 -0.2° C bedeckt
Sa, 15.12. 1:00 -0.5° C bedeckt
Sa, 15.12. 0:30 -0.4° C bedeckt
Ortszeit Relative Feuchte Sichtweite
Sa, 15.12. 1:00 79% 11 km
Fr, 14.12. 19:00 72% 14 km
Fr, 14.12. 13:00 64% 13 km
Fr, 14.12. 7:00 80% 14 km
Fr, 14.12. 1:00 65% 17 km
Do, 13.12. 19:00 72% 17 km
Do, 13.12. 13:00 80% 17 km
Do, 13.12. 7:00 83% 30 km
Ortszeit Relative Feuchte Sichtweite
Sa, 15.12. 3:30 77% 11 km
Sa, 15.12. 3:20 77% -
Sa, 15.12. 3:10 76% -
Sa, 15.12. 3:00 76% 11 km
Sa, 15.12. 2:50 76% -
Sa, 15.12. 2:40 78% -
Sa, 15.12. 2:30 75% 9 km
Sa, 15.12. 2:00 80% 10 km
Sa, 15.12. 1:30 74% 7 km
Sa, 15.12. 1:00 79% 11 km
Sa, 15.12. 0:30 77% 11 km
Ortszeit Niederschlagsmenge Niederschlagsart
Sa, 15.12. 1:00 0.0 l/m2 in 6 Std. -
Fr, 14.12. 19:00 0.0 l/m2 in 12 Std. -
Fr, 14.12. 13:00 0.0 l/m2 in 6 Std. -
Fr, 14.12. 7:00 0.0 l/m2 in 12 Std. -
Fr, 14.12. 1:00 0.0 l/m2 in 6 Std. -
Do, 13.12. 19:00 0.0 l/m2 in 12 Std. -
Do, 13.12. 13:00 0.0 l/m2 in 6 Std. -
Do, 13.12. 7:00 0.1 l/m2 in 12 Std. -
Ortszeit Niederschlagsmenge Niederschlagsart
Sa, 15.12. 3:30 0.0 l/m2 in 1 Std. -
Sa, 15.12. 3:20 keine Meldung -
Sa, 15.12. 3:10 keine Meldung -
Sa, 15.12. 3:00 0.0 l/m2 in 1 Std. -
Sa, 15.12. 2:50 keine Meldung -
Sa, 15.12. 2:40 keine Meldung -
Sa, 15.12. 2:30 0.0 l/m2 in 1 Std. -
Sa, 15.12. 2:00 0.0 l/m2 in 1 Std. -
Sa, 15.12. 1:30 0.0 l/m2 in 1 Std. -
Sa, 15.12. 1:00 0.0 l/m2 in 1 Std. -
Sa, 15.12. 0:30 0.0 l/m2 in 1 Std. -
Ortszeit Stärke Spitze Richtung
km/h Bft. km/h Grad Sektor
Sa, 15.12. 1:00 2 1 7 310° NW
Fr, 14.12. 19:00 4 1 14 260° W
Fr, 14.12. 13:00 7 2 11 290° W
Fr, 14.12. 7:00 4 1 22 350° N
Fr, 14.12. 1:00 7 2 22 60° NO
Do, 13.12. 19:00 7 2 28 30° NO
Do, 13.12. 13:00 15 3 22 320° NW
Do, 13.12. 7:00 11 2 18 10° N
Ortszeit Stärke Spitze Richtung
km/h Bft. km/h Grad Sektor
Sa, 15.12. 3:30 0 0 7 - -
Sa, 15.12. 3:20 2 1 - 330° NW
Sa, 15.12. 3:10 4 1 - 340° N
Sa, 15.12. 3:00 4 1 7 360° N
Sa, 15.12. 2:50 4 1 - 360° N
Sa, 15.12. 2:40 4 1 - 330° NW
Sa, 15.12. 2:30 4 1 7 10° N
Sa, 15.12. 2:00 4 1 4 340° N
Sa, 15.12. 1:30 4 1 4 20° N
Sa, 15.12. 1:00 2 1 6 310° NW
Sa, 15.12. 0:30 4 1 4 320° NW
Ortszeit Untergrenze Bedeckung Gattung
total tief tief mittel hoch
Sa, 15.12. 1:00 810 m 8/8 8/8 - - -
Fr, 14.12. 19:00 900 m 8/8 8/8 - - -
Fr, 14.12. 13:00 - 0/8 0/8 - - -
Fr, 14.12. 7:00 - 0/8 0/8 - - -
Fr, 14.12. 1:00 1500 m 0/8 0/8 - - -
Do, 13.12. 19:00 1500 m 8/8 8/8 - - -
Do, 13.12. 13:00 1260 m 8/8 8/8 - - -
Do, 13.12. 7:00 1350 m 7/8 7/8 - - -
Ortszeit Bedeckungsgrad in Achtel und Wolkenuntergrenze
Sa, 15.12. 3:30 8(810m)
Sa, 15.12. 3:20 8(810m)
Sa, 15.12. 3:10 8(810m)
Sa, 15.12. 3:00 8(780m)
Sa, 15.12. 2:50 8(780m)
Sa, 15.12. 2:40 8(780m)
Sa, 15.12. 2:30 8(810m)
Sa, 15.12. 2:00 8(780m)
Sa, 15.12. 1:30 8(810m)
Sa, 15.12. 1:00 8(810m)
Sa, 15.12. 0:30 8(840m)
Ortszeit Luftdruck NN (hPa) Tendenz (hPa in 3 Std.)
Sa, 15.12. 1:00 1025 + 0,1
Fr, 14.12. 19:00 1023 + 2,3
Fr, 14.12. 13:00 1020 + 0,2
Fr, 14.12. 7:00 1018 + 0,5
Fr, 14.12. 1:00 1016 + 0,5
Do, 13.12. 19:00 1015 + 0,2
Do, 13.12. 13:00 1015 - 1,4
Do, 13.12. 7:00 1017 - 1,5
Ortszeit Luftdruck NN (hPa) Tendenz (hPa in 3 Std.)
Sa, 15.12. 3:30 1026 + 1,4
Sa, 15.12. 3:20 1026 keine Meldung
Sa, 15.12. 3:10 1026 keine Meldung
Sa, 15.12. 3:00 1025 + 1,3
Sa, 15.12. 2:50 1025 keine Meldung
Sa, 15.12. 2:40 1025 keine Meldung
Sa, 15.12. 2:30 1025 + 0,8
Sa, 15.12. 2:00 1025 + 0,6
Sa, 15.12. 1:30 1024 + 0,1
Sa, 15.12. 1:00 1025 + 0,1
Sa, 15.12. 0:30 1024 - 0,1
Ortszeit Schneehöhe (cm)
Sa, 15.12. 1:00 0
Fr, 14.12. 19:00 0
Fr, 14.12. 13:00 0
Fr, 14.12. 7:00 0
Fr, 14.12. 1:00 0
Do, 13.12. 19:00 0
Do, 13.12. 13:00 0
Do, 13.12. 7:00 0
Ortszeit Schneehöhe (cm)
Sa, 15.12. 3:30 0
Sa, 15.12. 3:20 0
Sa, 15.12. 3:10 0
Sa, 15.12. 3:00 0
Sa, 15.12. 2:50 0
Sa, 15.12. 2:40 0
Sa, 15.12. 2:30 0
Sa, 15.12. 2:00 0
Sa, 15.12. 1:30 0
Sa, 15.12. 1:00 0
Sa, 15.12. 0:30 0
Link zu dieser Seite / Seite empfehlen

Das Wetter in ...